Time;durP1;ratioP1;P1;durP2;ratioP2;P2;SDS_P1;SDS_P2;PMS_P1;PMS_P2;Temp;Humidity;BMP_temperature;BMP_pressure;BME280_temperature;BME280_humidity;BME280_pressure;Samples;Min_cycle;Max_cycle;Signal;HPM_P1;HPM_P2
2023/06/22 00:01:37;;;;;;;;;;;18.60;99.90;;;;;;20856162;28;19928;-78
2023/06/22 00:11:38;;;;;;;;;;;18.30;99.90;;;;;;20870225;28;20055;-78
2023/06/22 00:21:38;;;;;;;;;;;18.40;99.90;;;;;;20923716;28;19917;-77
2023/06/22 00:31:39;;;;;;;;;;;18.50;99.90;;;;;;20846373;28;19944;-77
2023/06/22 00:41:40;;;;;;;;;;;18.40;99.90;;;;;;20839671;28;19917;-78
2023/06/22 00:51:47;;;;;;;;;;;18.40;99.90;;;;;;20840079;28;19921;-77
2023/06/22 01:01:48;;;;;;;;;;;18.40;99.90;;;;;;20764710;28;19927;-78
2023/06/22 01:11:53;;;;;;;;;;;18.70;99.90;;;;;;20810072;28;19912;-78
2023/06/22 01:21:55;;;;;;;;;;;18.70;99.90;;;;;;20908024;28;19917;-77
2023/06/22 01:31:56;;;;;;;;;;;18.70;99.90;;;;;;20758941;28;19920;-77
2023/06/22 01:41:57;;;;;;;;;;;18.70;99.90;;;;;;20807670;28;20396;-77
2023/06/22 01:51:58;;;;;;;;;;;18.30;99.90;;;;;;20914611;28;19962;-78
2023/06/22 02:02:04;;;;;;;;;;;18.00;99.90;;;;;;20837021;28;19963;-77
2023/06/22 02:12:10;;;;;;;;;;;17.80;99.90;;;;;;20857470;28;19914;-77
2023/06/22 02:22:13;;;;;;;;;;;17.80;99.90;;;;;;20912872;28;19990;-77
2023/06/22 02:32:15;;;;;;;;;;;17.70;99.90;;;;;;20847522;28;20321;-76
2023/06/22 02:42:20;;;;;;;;;;;17.50;99.90;;;;;;20872393;28;19960;-77
2023/06/22 02:52:21;;;;;;;;;;;17.20;99.90;;;;;;20910053;28;19912;-77
2023/06/22 03:02:21;;;;;;;;;;;17.10;99.90;;;;;;20845731;28;20386;-78
2023/06/22 03:12:22;;;;;;;;;;;17.10;99.90;;;;;;20892803;28;19912;-77
2023/06/22 03:22:26;;;;;;;;;;;16.90;99.90;;;;;;20921091;28;19916;-76
2023/06/22 03:32:27;;;;;;;;;;;16.90;99.90;;;;;;20833133;28;19920;-76
2023/06/22 03:42:28;;;;;;;;;;;16.80;99.90;;;;;;20792695;28;19966;-76
2023/06/22 03:52:29;;;;;;;;;;;17.00;99.90;;;;;;20818588;28;19963;-77
2023/06/22 04:02:32;;;;;;;;;;;17.10;99.90;;;;;;20755788;28;19917;-77
2023/06/22 04:12:32;;;;;;;;;;;17.10;99.90;;;;;;20809485;28;20022;-77
2023/06/22 04:22:33;;;;;;;;;;;17.30;99.90;;;;;;20906806;28;20294;-77
2023/06/22 04:32:36;;;;;;;;;;;17.50;99.90;;;;;;20822766;28;20348;-76
2023/06/22 04:42:37;;;;;;;;;;;17.70;99.90;;;;;;20856762;28;19956;-76
2023/06/22 04:52:38;;;;;;;;;;;17.80;99.90;;;;;;20903905;28;19917;-76
2023/06/22 05:02:39;;;;;;;;;;;18.00;99.90;;;;;;20829718;23;20382;-77
2023/06/22 05:12:40;;;;;;;;;;;18.30;99.90;;;;;;20846462;28;20029;-77
2023/06/22 05:22:42;;;;;;;;;;;18.60;99.90;;;;;;20794485;28;19924;-77
2023/06/22 05:32:44;;;;;;;;;;;19.00;99.90;;;;;;20772922;28;19914;-77
2023/06/22 05:42:44;;;;;;;;;;;19.00;99.90;;;;;;20803230;28;19920;-77
2023/06/22 05:52:45;;;;;;;;;;;19.30;99.90;;;;;;20820472;28;19964;-77
2023/06/22 06:02:46;;;;;;;;;;;19.80;99.90;;;;;;20778659;28;19961;-74
2023/06/22 06:12:46;;;;;;;;;;;20.10;99.90;;;;;;20790003;28;19913;-75
2023/06/22 06:22:47;;;;;;;;;;;20.60;99.90;;;;;;20826843;28;19963;-75
2023/06/22 06:32:49;;;;;;;;;;;20.80;99.90;;;;;;20826630;28;19913;-75
2023/06/22 06:42:49;;;;;;;;;;;21.80;99.90;;;;;;20815257;28;20291;-75
2023/06/22 06:52:51;;;;;;;;;;;22.10;99.90;;;;;;20752731;28;19959;-75
2023/06/22 07:02:52;;;;;;;;;;;21.70;99.90;;;;;;20752271;28;19918;-77
2023/06/22 07:12:53;;;;;;;;;;;22.10;99.90;;;;;;20765887;28;20376;-78
2023/06/22 07:22:54;;;;;;;;;;;22.30;99.90;;;;;;20763815;28;20016;-79
2023/06/22 07:32:54;;;;;;;;;;;22.90;99.90;;;;;;20842880;28;20398;-78
2023/06/22 07:42:55;;;;;;;;;;;23.00;99.90;;;;;;20843336;28;19928;-77
2023/06/22 07:52:55;;;;;;;;;;;24.00;99.90;;;;;;20844537;28;20338;-79
2023/06/22 08:02:56;;;;;;;;;;;25.40;99.90;;;;;;20808241;28;19917;-78
2023/06/22 08:12:57;;;;;;;;;;;25.80;99.90;;;;;;20786699;28;19913;-77
2023/06/22 08:23:00;;;;;;;;;;;25.10;99.90;;;;;;20836192;28;19921;-78
2023/06/22 08:33:00;;;;;;;;;;;25.10;99.90;;;;;;20839002;28;20323;-80
2023/06/22 08:43:01;;;;;;;;;;;26.70;99.90;;;;;;20868555;28;20050;-78
2023/06/22 08:53:02;;;;;;;;;;;27.30;99.90;;;;;;20840770;28;19956;-80
2023/06/22 09:03:02;;;;;;;;;;;27.80;99.90;;;;;;20841262;28;19947;-80
2023/06/22 09:13:03;;;;;;;;;;;28.60;99.90;;;;;;20830624;28;19982;-79
2023/06/22 09:23:04;;;;;;;;;;;28.80;99.90;;;;;;20824184;28;19924;-79
2023/06/22 09:33:04;;;;;;;;;;;27.80;99.90;;;;;;20835852;28;19918;-79
2023/06/22 09:43:05;;;;;;;;;;;26.30;99.90;;;;;;20833031;28;19917;-79
2023/06/22 09:53:06;;;;;;;;;;;26.90;99.90;;;;;;20788093;28;20012;-80
2023/06/22 10:03:06;;;;;;;;;;;28.20;99.90;;;;;;20869940;28;19924;-80
2023/06/22 10:13:11;;;;;;;;;;;27.60;99.90;;;;;;20872451;28;19919;-79
2023/06/22 10:23:12;;;;;;;;;;;26.80;99.90;;;;;;20872327;28;19985;-79
2023/06/22 10:33:13;;;;;;;;;;;26.90;99.90;;;;;;20885862;28;19917;-80
2023/06/22 10:43:13;;;;;;;;;;;26.40;99.90;;;;;;20877000;28;19917;-78
2023/06/22 10:53:14;;;;;;;;;;;25.90;99.90;;;;;;20855462;28;19936;-78
2023/06/22 11:03:14;;;;;;;;;;;26.00;99.90;;;;;;20850386;22;20020;-75
2023/06/22 11:13:15;;;;;;;;;;;25.90;99.90;;;;;;20767476;28;19991;-76
2023/06/22 11:23:16;;;;;;;;;;;25.50;99.90;;;;;;20748667;28;20441;-76
2023/06/22 11:33:16;;;;;;;;;;;25.40;99.90;;;;;;20747789;28;20003;-75
2023/06/22 11:43:17;;;;;;;;;;;25.30;99.90;;;;;;20746434;28;20283;-76
2023/06/22 11:53:18;;;;;;;;;;;26.00;99.90;;;;;;20746170;28;20001;-75
2023/06/22 12:03:19;;;;;;;;;;;26.60;99.90;;;;;;20744109;28;19971;-76
2023/06/22 12:13:19;;;;;;;;;;;26.90;99.90;;;;;;20704984;28;19972;-76
2023/06/22 12:23:20;;;;;;;;;;;27.20;99.90;;;;;;20699294;28;19918;-76
2023/06/22 12:33:21;;;;;;;;;;;27.10;99.90;;;;;;20742018;28;19984;-76
2023/06/22 12:43:21;;;;;;;;;;;26.90;99.90;;;;;;20756874;28;20263;-77
2023/06/22 12:53:23;;;;;;;;;;;27.00;99.90;;;;;;20740902;28;20000;-75
2023/06/22 13:03:25;;;;;;;;;;;27.50;99.90;;;;;;20740105;28;19937;-75
2023/06/22 13:13:29;;;;;;;;;;;28.50;99.90;;;;;;20733189;28;19914;-74
2023/06/22 13:23:29;;;;;;;;;;;29.30;99.90;;;;;;20732518;28;19972;-75
2023/06/22 13:33:30;;;;;;;;;;;28.30;99.90;;;;;;20711883;28;20443;-74
2023/06/22 13:43:31;;;;;;;;;;;27.00;99.90;;;;;;20697407;28;20379;-75
2023/06/22 13:53:31;;;;;;;;;;;27.10;99.90;;;;;;20736643;28;19960;-75
2023/06/22 14:03:32;;;;;;;;;;;27.60;99.90;;;;;;20752047;28;19917;-75
2023/06/22 14:13:33;;;;;;;;;;;26.80;99.90;;;;;;20737156;28;19914;-74
2023/06/22 14:23:34;;;;;;;;;;;26.60;99.90;;;;;;20743219;28;19921;-74
2023/06/22 14:33:34;;;;;;;;;;;26.60;99.90;;;;;;20747617;28;19914;-76
2023/06/22 14:43:35;;;;;;;;;;;27.50;99.90;;;;;;20718565;28;19918;-75
2023/06/22 14:53:36;;;;;;;;;;;26.80;99.90;;;;;;20714050;28;19914;-76
2023/06/22 15:03:37;;;;;;;;;;;26.80;99.90;;;;;;20735588;28;20396;-74
2023/06/22 15:13:40;;;;;;;;;;;26.80;99.90;;;;;;20759952;28;19917;-74
2023/06/22 15:23:41;;;;;;;;;;;26.40;99.90;;;;;;20747879;28;19971;-75
2023/06/22 15:33:42;;;;;;;;;;;26.30;99.90;;;;;;20746313;28;19913;-75
2023/06/22 15:43:43;;;;;;;;;;;25.40;99.90;;;;;;20754856;28;19968;-76
2023/06/22 15:53:43;;;;;;;;;;;24.40;99.90;;;;;;20759080;28;20011;-75
2023/06/22 16:03:44;;;;;;;;;;;24.20;99.90;;;;;;20746198;28;20006;-76
2023/06/22 16:13:45;;;;;;;;;;;24.20;99.90;;;;;;20722626;28;19936;-77
2023/06/22 16:23:46;;;;;;;;;;;23.70;99.90;;;;;;20719264;28;19918;-76
2023/06/22 16:33:49;;;;;;;;;;;22.40;99.90;;;;;;20757368;28;19914;-78
2023/06/22 16:43:49;;;;;;;;;;;22.50;99.90;;;;;;20753275;28;19932;-77
2023/06/22 16:53:55;;;;;;;;;;;21.40;99.90;;;;;;20722361;28;19999;-77
2023/06/22 17:03:55;;;;;;;;;;;21.60;99.90;;;;;;20716885;28;19918;-76
2023/06/22 17:14:00;;;;;;;;;;;21.60;99.90;;;;;;20716312;28;20056;-78
2023/06/22 17:24:01;;;;;;;;;;;21.40;99.90;;;;;;20769344;28;19917;-78
2023/06/22 17:34:06;;;;;;;;;;;21.20;99.90;;;;;;20754825;28;19925;-79
2023/06/22 17:44:07;;;;;;;;;;;21.00;99.90;;;;;;20698843;28;20276;-77
2023/06/22 17:54:08;;;;;;;;;;;21.20;99.90;;;;;;20739251;28;19983;-76
2023/06/22 18:04:10;;;;;;;;;;;21.10;99.90;;;;;;20755441;28;19956;-76
2023/06/22 18:14:12;;;;;;;;;;;20.50;99.90;;;;;;20757718;28;20303;-76
2023/06/22 18:24:14;;;;;;;;;;;19.60;99.90;;;;;;20754127;28;19992;-76
2023/06/22 18:34:15;;;;;;;;;;;19.40;99.90;;;;;;20754395;28;19965;-76
2023/06/22 18:44:20;;;;;;;;;;;19.60;99.90;;;;;;20752207;28;20283;-76
2023/06/22 18:54:32;;;;;;;;;;;19.60;99.90;;;;;;20802793;28;19914;-77
2023/06/22 19:04:33;;;;;;;;;;;19.30;99.90;;;;;;20775700;28;20004;-77
2023/06/22 19:14:34;;;;;;;;;;;19.10;99.90;;;;;;20753302;28;20411;-77
2023/06/22 19:24:49;;;;;;;;;;;18.60;99.90;;;;;;20764285;28;19918;-77
2023/06/22 19:34:50;;;;;;;;;;;18.50;99.90;;;;;;20744973;28;19917;-77
2023/06/22 19:44:51;;;;;;;;;;;18.20;99.90;;;;;;20722706;28;20376;-78
2023/06/22 19:54:51;;;;;;;;;;;17.90;99.90;;;;;;20754115;28;19940;-75
2023/06/22 20:04:52;;;;;;;;;;;17.70;99.90;;;;;;20748433;28;19949;-75
2023/06/22 20:14:53;;;;;;;;;;;17.70;99.90;;;;;;20738796;28;19924;-75
2023/06/22 20:24:54;;;;;;;;;;;17.80;99.90;;;;;;20710676;28;19918;-75
2023/06/22 20:34:54;;;;;;;;;;;17.80;99.90;;;;;;20707482;28;19928;-75
2023/06/22 20:44:55;;;;;;;;;;;17.50;99.90;;;;;;20721217;28;20435;-75
2023/06/22 20:54:56;;;;;;;;;;;17.40;99.90;;;;;;20713386;28;19917;-75
2023/06/22 21:04:56;;;;;;;;;;;17.40;99.90;;;;;;20700144;28;19917;-75
2023/06/22 21:14:57;;;;;;;;;;;17.40;99.90;;;;;;20704019;28;20336;-75
2023/06/22 21:25:05;;;;;;;;;;;17.40;99.90;;;;;;20714922;28;19913;-75
2023/06/22 21:35:07;;;;;;;;;;;17.30;99.90;;;;;;20699140;28;20407;-75
2023/06/22 21:45:09;;;;;;;;;;;17.20;99.90;;;;;;20703700;28;19920;-74
2023/06/22 21:55:09;;;;;;;;;;;17.20;99.90;;;;;;20686170;28;19918;-74
2023/06/22 22:05:10;;;;;;;;;;;17.20;99.90;;;;;;20687222;28;19918;-74
2023/06/22 22:15:11;;;;;;;;;;;17.20;99.90;;;;;;20701234;28;19929;-74
2023/06/22 22:25:12;;;;;;;;;;;17.40;99.90;;;;;;20741709;28;20376;-74
2023/06/22 22:35:14;;;;;;;;;;;17.40;99.90;;;;;;20741374;28;19917;-74
2023/06/22 22:45:15;;;;;;;;;;;17.40;99.90;;;;;;20748567;28;20037;-74
2023/06/22 22:55:16;;;;;;;;;;;17.40;99.90;;;;;;20754407;28;20394;-74
2023/06/22 23:05:18;;;;;;;;;;;17.40;99.90;;;;;;20817953;23;19925;-73
2023/06/22 23:15:21;;;;;;;;;;;17.30;99.90;;;;;;20909269;28;19929;-73
2023/06/22 23:25:22;;;;;;;;;;;17.30;99.90;;;;;;20917608;28;19913;-73
2023/06/22 23:35:22;;;;;;;;;;;17.20;99.90;;;;;;20916050;28;20027;-73
2023/06/22 23:45:23;;;;;;;;;;;17.10;99.90;;;;;;20915315;28;19916;-74
2023/06/22 23:55:24;;;;;;;;;;;17.00;99.90;;;;;;20913952;28;20015;-74
